vwbr.com.br alexa rank chart, vwbr.com.br alexa rank daily changes

vwbr.com.br alexa rank chart, vwbr.com.br alexa rank daily changes

vwbr.com.br
Actual rank:
729 565

RANK HISTORY

Date Rank Diff
2017/11/24 729 565 -14 944
2017/11/23 744 509 -43 991
2017/11/22 788 500 -26 749
2017/11/21 815 249 +18 003
2017/11/20 797 246 -40 948
2017/11/19 838 194 +7 792
2017/11/18 830 402 -13 023
2017/11/17 843 425 +33 933
2017/11/16 809 492 +4 445
2017/11/15 805 047 +1 794
2017/11/14 803 253 +24 356
2017/11/13 778 897 +16 065
2017/11/12 762 832 +77 048
2017/11/11 685 784 +8 484
2017/11/10 677 300 +19 582
2017/11/09 657 718 -14 436
2017/11/08 672 154 -109
2017/11/07 672 263 -8 878
2017/11/06 681 141 +4 499
2017/11/05 676 642 -3 858
2017/11/04 680 500 +39 079
2017/11/03 641 421 -13 769
2017/11/02 655 190 -18 017
2017/11/01 673 207 +1 759
2017/10/31 671 448 +11 093
2017/10/30 660 355 +10 916
2017/10/29 649 439 -21 462
2017/10/28 670 901 -8 406
2017/10/27 679 307 -17 185
2017/10/26 696 492 -13 474
2017/10/25 709 966 -32 976
2017/10/24 742 942 +25 569
2017/10/23 717 373 +12 133
2017/10/22 705 240 +13 427
2017/10/21 691 813 -17 067
2017/10/20 708 880 +14 626
2017/10/19 694 254 +8 271
2017/10/18 685 983 -27 796
2017/10/17 713 779 -10 815
2017/10/16 724 594 +61 060
2017/10/14 663 534 +25 639
2017/10/13 637 895 -14 891
2017/10/12 652 786 -59 011
2017/10/11 711 797 -50 328
2017/10/10 762 125 -29 103
2017/10/09 791 228 -3 958
2017/10/08 795 186 -17 607
2017/10/07 812 793 -22 666
2017/10/06 835 459 +3 253
2017/10/05 832 206 -19 593
2017/10/04 851 799 -10 635
2017/10/03 862 434 +11 515
2017/10/02 850 919 +19 658
2017/10/01 831 261 +18 639
2017/09/30 812 622 -21 053
2017/09/29 833 675 -18 984
2017/09/28 852 659 +12 035
2017/09/27 840 624 +6 723
2017/09/26 833 901 -3 345
2017/09/25 837 246

WIDGET FOR YOUR SITE

DOMAINS WITH THE NEAREST RANK

Domain Rank
zootsports.com 729 560
2clicksafe.com 729 561
lebouquetafricain.com 729 562
tierforen.net 729 563
peachyplannerdeals.com 729 564
vwbr.com.br 729 565
zagrebparking.hr 729 566
clubladaniva.es 729 567
cao6cha.space 729 568
culdamaury.org 729 569
cryptocrooks.com 729 570

DOMAINS WITH THE NEAREST RANK BY TLD .com.br

Domain Rank
portoitajai.com.br 729 306
sociedadedeeducadores.com.br 729 409
codificar.com.br 729 423
cheirinhodenenem.com.br 729 465
eletrofrigor.com.br 729 526
vwbr.com.br 729 565
sublimetextdicas.com.br 729 622
origiweb.com.br 729 629
marechalnews.com.br 729 648
arcelormittal.com.br 729 758
lojaassombrada.com.br 729 764